createdAt,value
2023-05-23T00:01:55.285Z,97383.16
2023-05-23T00:04:27.309Z,97378.22
2023-05-23T00:06:54.559Z,97387.78
2023-05-23T00:09:21.716Z,97385.81
2023-05-23T00:11:48.756Z,97396.47
2023-05-23T00:14:16.007Z,97396.09
2023-05-23T00:16:45.046Z,97390.00
2023-05-23T00:19:15.082Z,97394.56
2023-05-23T00:21:49.925Z,97390.00
2023-05-23T00:24:19.113Z,97384.72
2023-05-23T00:26:47.177Z,97388.56
2023-05-23T00:29:18.466Z,97388.06
2023-05-23T00:31:48.913Z,97390.00
2023-05-23T00:34:19.718Z,97389.56
2023-05-23T00:36:50.636Z,97393.47
2023-05-23T00:39:21.196Z,97391.63
2023-05-23T00:41:53.307Z,97393.81
2023-05-23T00:44:22.129Z,97392.66
2023-05-23T00:46:57.021Z,97384.72
2023-05-23T00:49:24.795Z,97386.72
2023-05-23T00:51:52.714Z,97381.09
2023-05-23T00:54:29.655Z,97368.91
2023-05-23T00:56:56.949Z,97369.38
2023-05-23T00:59:27.603Z,97372.84
2023-05-23T01:01:57.003Z,97364.94
2023-05-23T01:04:26.668Z,97369.38
2023-05-23T01:06:57.934Z,97371.03
2023-05-23T01:12:25.119Z,97368.06
2023-05-23T01:15:09.004Z,97368.19
2023-05-23T01:17:50.930Z,97367.91
2023-05-23T01:20:29.725Z,97351.63
2023-05-23T01:23:00.522Z,97360.38
2023-05-23T01:25:46.779Z,97363.00
2023-05-23T01:28:19.670Z,97364.81
2023-05-23T01:30:52.479Z,97374.56
2023-05-23T01:33:21.168Z,97368.09
2023-05-23T01:35:49.019Z,97381.09
2023-05-23T01:38:16.067Z,97376.66
2023-05-23T01:40:43.304Z,97376.47
2023-05-23T01:43:10.987Z,97370.84
2023-05-23T01:45:38.055Z,97378.94
2023-05-23T01:48:06.457Z,97373.66
2023-05-23T01:50:34.207Z,97379.22
2023-05-23T01:53:01.645Z,97379.72
2023-05-23T01:55:29.365Z,97375.25
2023-05-23T01:57:57.883Z,97376.06
2023-05-23T02:00:25.755Z,97376.69
2023-05-23T02:02:53.059Z,97372.25
2023-05-23T02:05:20.201Z,97383.75
2023-05-23T02:07:47.206Z,97384.88
2023-05-23T02:10:14.371Z,97389.59
2023-05-23T02:12:41.425Z,97386.06
2023-05-23T02:15:09.383Z,97390.78
2023-05-23T02:17:36.832Z,97382.63
2023-05-23T02:20:04.261Z,97383.78
2023-05-23T02:22:31.426Z,97378.69
2023-05-23T02:24:58.509Z,97381.22
2023-05-23T02:27:25.553Z,97376.47
2023-05-23T02:29:52.537Z,97384.28
2023-05-23T02:32:19.539Z,97386.97
2023-05-23T02:34:50.600Z,97392.19
2023-05-23T02:37:17.704Z,97393.63
2023-05-23T02:39:44.810Z,97394.47
2023-05-23T02:42:11.991Z,97402.03
2023-05-23T02:44:39.228Z,97399.41
2023-05-23T02:47:07.638Z,97403.19
2023-05-23T02:49:34.873Z,97401.22
2023-05-23T02:52:02.153Z,97405.84
2023-05-23T02:54:29.457Z,97405.97
2023-05-23T02:56:57.034Z,97402.47
2023-05-23T02:59:24.265Z,97402.34
2023-05-23T03:01:51.340Z,97400.69
2023-05-23T03:04:18.665Z,97400.31
2023-05-23T03:06:45.757Z,97397.69
2023-05-23T03:09:12.773Z,97397.69
2023-05-23T03:11:40.507Z,97390.97
2023-05-23T03:14:07.563Z,97385.84
2023-05-23T03:16:34.642Z,97377.41
2023-05-23T03:19:01.823Z,97383.50
2023-05-23T03:21:29.841Z,97385.97
2023-05-23T03:23:56.894Z,97386.94
2023-05-23T03:26:24.038Z,97390.41
2023-05-23T03:28:51.435Z,97390.41
2023-05-23T03:31:19.934Z,97398.50
2023-05-23T03:33:47.020Z,97396.34
2023-05-23T03:36:14.055Z,97399.31
2023-05-23T03:38:42.149Z,97403.59
2023-05-23T03:41:09.148Z,97412.19
2023-05-23T03:43:36.854Z,97404.88
2023-05-23T03:46:04.015Z,97409.63
2023-05-23T03:48:31.297Z,97410.28
2023-05-23T03:50:58.351Z,97405.81
2023-05-23T03:53:25.499Z,97414.91
2023-05-23T03:55:54.100Z,97409.97
2023-05-23T03:58:21.613Z,97409.00
2023-05-23T04:00:53.361Z,97414.72
2023-05-23T04:03:21.797Z,97414.03
2023-05-23T04:05:50.810Z,97416.66
2023-05-23T04:08:22.015Z,97425.06
2023-05-23T04:10:50.876Z,97427.81
2023-05-23T04:13:18.098Z,97419.72
2023-05-23T04:15:46.052Z,97411.81
2023-05-23T04:18:15.126Z,97424.75
2023-05-23T04:20:43.064Z,97421.22
2023-05-23T04:23:11.239Z,97425.97
2023-05-23T04:25:41.520Z,97419.50
2023-05-23T04:28:14.276Z,97422.44
2023-05-23T04:30:42.815Z,97421.16
2023-05-23T04:33:10.567Z,97423.91
2023-05-23T04:35:41.049Z,97429.19
2023-05-23T04:38:09.082Z,97431.44
2023-05-23T04:40:36.602Z,97426.81
2023-05-23T04:43:22.057Z,97439.13
2023-05-23T04:45:55.189Z,97443.13
2023-05-23T04:48:36.426Z,97441.22
2023-05-23T04:51:06.682Z,97449.78
2023-05-23T04:53:37.136Z,97456.44
2023-05-23T04:56:04.348Z,97453.13
2023-05-23T04:58:32.067Z,97455.03
2023-05-23T05:01:03.972Z,97445.88
2023-05-23T05:03:31.875Z,97448.94
2023-05-23T05:05:59.193Z,97450.09
2023-05-23T05:08:26.427Z,97456.88
2023-05-23T05:10:55.538Z,97456.22
2023-05-23T05:13:23.148Z,97460.06
2023-05-23T05:15:53.019Z,97466.25
2023-05-23T05:18:20.444Z,97462.97
2023-05-23T05:20:47.722Z,97462.97
2023-05-23T05:23:16.234Z,97466.63
2023-05-23T05:25:43.396Z,97473.31
2023-05-23T05:28:10.608Z,97467.81
2023-05-23T05:30:46.482Z,97473.38
2023-05-23T05:33:14.256Z,97472.56
2023-05-23T05:35:41.787Z,97476.84
2023-05-23T05:38:11.067Z,97478.28
2023-05-23T05:40:39.802Z,97468.50
2023-05-23T05:43:07.140Z,97477.16
2023-05-23T05:45:34.986Z,97478.41
2023-05-23T05:48:02.358Z,97478.22
2023-05-23T05:50:30.106Z,97479.69
2023-05-23T05:52:57.126Z,97478.94
2023-05-23T05:55:24.465Z,97485.00
2023-05-23T05:57:54.655Z,97491.16
2023-05-23T06:00:22.693Z,97483.63
2023-05-23T06:02:57.731Z,97480.63
2023-05-23T06:05:39.509Z,97482.88
2023-05-23T06:08:06.861Z,97483.06
2023-05-23T06:10:34.183Z,97478.78
2023-05-23T06:13:02.024Z,97486.75
2023-05-23T06:15:30.632Z,97476.66
2023-05-23T06:17:57.773Z,97480.00
2023-05-23T06:20:26.023Z,97481.69
2023-05-23T06:22:54.512Z,97485.69
2023-05-23T06:25:21.917Z,97490.16
2023-05-23T06:27:50.128Z,97483.38
2023-05-23T06:30:17.362Z,97487.41
2023-05-23T06:32:45.648Z,97495.97
2023-05-23T06:35:12.689Z,97498.03
2023-05-23T06:37:43.592Z,97490.31
2023-05-23T06:40:11.542Z,97492.72
2023-05-23T06:42:38.697Z,97484.81
2023-05-23T06:45:18.269Z,97489.91
2023-05-23T06:47:45.782Z,97490.56
2023-05-23T06:50:12.999Z,97493.44
2023-05-23T06:52:42.915Z,97489.53
2023-05-23T06:55:14.580Z,97490.97
2023-05-23T06:57:41.790Z,97493.72
2023-05-23T07:00:09.495Z,97489.31
2023-05-23T07:02:46.008Z,97490.44
2023-05-23T07:05:13.178Z,97483.31
2023-05-23T07:07:47.391Z,97477.22
2023-05-23T07:10:15.195Z,97483.56
2023-05-23T07:12:42.510Z,97486.22
2023-05-23T07:15:11.864Z,97480.47
2023-05-23T07:17:48.655Z,97475.16
2023-05-23T07:20:16.228Z,97475.97
2023-05-23T07:22:45.415Z,97480.25
2023-05-23T07:25:12.526Z,97479.88
2023-05-23T07:27:40.463Z,97476.25
2023-05-23T07:30:09.922Z,97483.19
2023-05-23T07:32:38.392Z,97487.69
2023-05-23T07:35:07.557Z,97476.84
2023-05-23T07:37:34.667Z,97476.47
2023-05-23T07:40:01.789Z,97489.53
2023-05-23T07:42:28.997Z,97486.06
2023-05-23T07:44:56.165Z,97486.44
2023-05-23T07:47:24.461Z,97486.44
2023-05-23T07:49:53.296Z,97493.19
2023-05-23T07:52:22.826Z,97489.69
2023-05-23T07:54:49.944Z,97487.69
2023-05-23T07:57:18.065Z,97493.81
2023-05-23T07:59:45.608Z,97496.25
2023-05-23T08:02:12.946Z,97494.84
2023-05-23T08:04:41.430Z,97493.59
2023-05-23T08:07:09.860Z,97495.44
2023-05-23T08:09:57.119Z,97496.47
2023-05-23T08:12:24.166Z,97495.88
2023-05-23T08:15:00.094Z,97490.75
2023-05-23T08:17:36.436Z,97493.19
2023-05-23T08:20:05.404Z,97484.22
2023-05-23T08:22:32.838Z,97477.06
2023-05-23T08:24:59.988Z,97479.31
2023-05-23T08:27:30.454Z,97471.94
2023-05-23T08:30:04.061Z,97474.41
2023-05-23T08:32:31.225Z,97475.84
2023-05-23T08:34:58.760Z,97466.31
2023-05-23T08:37:26.462Z,97461.63
2023-05-23T08:39:53.567Z,97469.16
2023-05-23T08:42:40.853Z,97473.69
2023-05-23T08:45:10.442Z,97476.59
2023-05-23T08:47:39.121Z,97468.56
2023-05-23T08:50:08.489Z,97473.09
2023-05-23T08:52:38.017Z,97471.47
2023-05-23T08:55:06.241Z,97472.94
2023-05-23T08:57:36.103Z,97478.06
2023-05-23T09:00:20.298Z,97485.44
2023-05-23T09:02:48.846Z,97485.47
2023-05-23T09:05:36.267Z,97484.44
2023-05-23T09:08:03.579Z,97477.47
2023-05-23T09:10:30.782Z,97484.63
2023-05-23T09:12:59.071Z,97479.31
2023-05-23T09:15:27.548Z,97484.41
2023-05-23T09:18:01.977Z,97476.03
2023-05-23T09:20:30.875Z,97481.16
2023-05-23T09:23:06.408Z,97475.66
2023-05-23T09:25:35.326Z,97474.16
2023-05-23T09:28:04.730Z,97471.28
2023-05-23T09:30:34.699Z,97471.69
2023-05-23T09:33:05.524Z,97472.50
2023-05-23T09:35:34.247Z,97471.09
2023-05-23T09:38:01.743Z,97471.28
2023-05-23T09:40:33.719Z,97462.13
2023-05-23T09:43:05.665Z,97463.81
2023-05-23T10:17:37.755Z,97466.59
2023-05-23T10:20:10.902Z,97470.50
2023-05-23T10:22:38.861Z,97471.53
2023-05-23T10:25:07.548Z,97473.38
2023-05-23T10:27:34.625Z,97471.16
2023-05-23T10:30:02.155Z,97469.72
2023-05-23T10:32:31.596Z,97474.59
2023-05-23T10:35:18.617Z,97483.81
2023-05-23T10:38:09.436Z,97485.41
2023-05-23T10:41:08.405Z,97486.25
2023-05-23T10:43:48.042Z,97510.56
2023-05-23T10:46:16.020Z,97501.81
2023-05-23T10:48:44.671Z,97520.09
2023-05-23T10:51:15.922Z,97518.28
2023-05-23T10:53:47.129Z,97510.13
2023-05-23T10:56:24.805Z,97510.06
2023-05-23T10:58:55.673Z,97515.13
2023-05-23T11:01:23.934Z,97522.56
2023-05-23T11:03:55.669Z,97516.97
2023-05-23T11:06:30.257Z,97510.63
2023-05-23T11:09:13.585Z,97506.06
2023-05-23T11:11:49.472Z,97510.50
2023-05-23T11:14:17.104Z,97510.34
2023-05-23T11:16:49.313Z,97510.34
2023-05-23T11:19:19.376Z,97510.13
2023-05-23T11:21:49.944Z,97512.41
2023-05-23T11:24:17.844Z,97508.44
2023-05-23T11:27:00.207Z,97509.31
2023-05-23T11:29:29.201Z,97504.22
2023-05-23T11:31:57.342Z,97505.41
2023-05-23T11:34:27.165Z,97507.22
2023-05-23T11:36:57.297Z,97502.38
2023-05-23T11:39:24.455Z,97508.19
2023-05-23T11:42:01.580Z,97510.41
2023-05-23T11:44:29.074Z,97508.19
2023-05-23T11:47:07.391Z,97520.66
2023-05-23T11:49:38.291Z,97511.09
2023-05-23T11:52:06.801Z,97506.44
2023-05-23T11:54:33.955Z,97499.13
2023-05-23T11:57:02.853Z,97498.53
2023-05-23T11:59:30.087Z,97507.53
2023-05-23T12:01:57.175Z,97502.00
2023-05-23T12:04:26.040Z,97499.34
2023-05-23T12:06:53.127Z,97501.38
2023-05-23T12:09:20.225Z,97499.97
2023-05-23T12:11:48.929Z,97495.63
2023-05-23T12:14:17.909Z,97482.53
2023-05-23T12:16:47.308Z,97484.50
2023-05-23T12:19:17.300Z,97487.50
2023-05-23T12:21:49.236Z,97473.22
2023-05-23T12:24:19.962Z,97487.13
2023-05-23T12:26:58.952Z,97478.72
2023-05-23T12:29:35.224Z,97478.25
2023-05-23T12:32:04.079Z,97485.94
2023-05-23T12:34:31.350Z,97478.94
2023-05-23T12:37:14.997Z,97486.38
2023-05-23T12:39:46.435Z,97484.72
2023-05-23T12:42:13.730Z,97484.09
2023-05-23T12:44:43.908Z,97479.28
2023-05-23T12:47:11.027Z,97481.41
2023-05-23T12:49:38.984Z,97477.63
2023-05-23T12:52:06.410Z,97484.94
2023-05-23T12:54:33.462Z,97477.88
2023-05-23T12:57:00.525Z,97473.88
2023-05-23T12:59:27.574Z,97476.19
2023-05-23T13:01:55.039Z,97485.47
2023-05-23T13:04:22.272Z,97476.03
2023-05-23T13:06:49.369Z,97466.25
2023-05-23T13:09:16.942Z,97473.69
2023-05-23T13:11:44.504Z,97462.38
2023-05-23T13:14:11.567Z,97467.09
2023-05-23T13:16:39.526Z,97475.38
2023-05-23T13:19:07.216Z,97469.06
2023-05-23T13:21:34.298Z,97463.59
2023-05-23T13:24:01.360Z,97462.28
2023-05-23T13:26:28.567Z,97456.66
2023-05-23T13:28:55.891Z,97458.34
2023-05-23T13:31:22.927Z,97451.97
2023-05-23T13:33:50.013Z,97455.69
2023-05-23T13:36:17.096Z,97464.41
2023-05-23T13:38:44.250Z,97468.75
2023-05-23T13:41:11.393Z,97467.78
2023-05-23T13:43:38.428Z,97457.94
2023-05-23T13:46:05.788Z,97467.66
2023-05-23T13:48:32.914Z,97469.13
2023-05-23T13:51:01.880Z,97464.97
2023-05-23T13:53:28.951Z,97467.13
2023-05-23T13:55:56.016Z,97473.56
2023-05-23T13:58:23.068Z,97463.75
2023-05-23T14:00:50.100Z,97472.16
2023-05-23T14:03:19.475Z,97476.63
2023-05-23T14:05:46.611Z,97478.25
2023-05-23T14:08:14.223Z,97485.06
2023-05-23T14:10:42.027Z,97479.13
2023-05-23T14:13:09.435Z,97482.97
2023-05-23T14:15:38.604Z,97478.06
2023-05-23T14:18:05.969Z,97473.41
2023-05-23T14:20:33.347Z,97481.78
2023-05-23T14:23:00.398Z,97486.66
2023-05-23T14:25:27.444Z,97475.53
2023-05-23T14:27:54.656Z,97477.13
2023-05-23T14:30:21.680Z,97475.59
2023-05-23T14:32:49.046Z,97474.75
2023-05-23T14:35:16.195Z,97479.41
2023-05-23T14:37:43.216Z,97478.50
2023-05-23T14:40:10.543Z,97480.88
2023-05-23T14:42:38.002Z,97475.59
2023-05-23T14:45:05.515Z,97470.66
2023-05-23T14:47:32.771Z,97476.00
2023-05-23T14:49:59.855Z,97477.88
2023-05-23T14:52:26.939Z,97485.28
2023-05-23T14:54:54.132Z,97485.84
2023-05-23T14:57:21.156Z,97486.47
2023-05-23T14:59:48.245Z,97482.97
2023-05-23T15:02:15.457Z,97480.28
2023-05-23T15:04:42.775Z,97482.38
2023-05-23T15:07:09.803Z,97481.34
2023-05-23T15:09:36.858Z,97487.28
2023-05-23T15:12:05.495Z,97479.09
2023-05-23T15:14:32.502Z,97477.91
2023-05-23T15:17:07.802Z,97479.31
2023-05-23T15:19:38.173Z,97473.41
2023-05-23T15:22:05.971Z,97476.44
2023-05-23T15:27:11.739Z,97475.59
2023-05-23T15:29:46.412Z,97472.66
2023-05-23T15:32:13.548Z,97473.59
2023-05-23T15:34:40.751Z,97475.53
2023-05-23T15:37:07.790Z,97470.28
2023-05-23T15:39:35.119Z,97480.22
2023-05-23T15:42:02.248Z,97467.81
2023-05-23T15:44:29.382Z,97472.28
2023-05-23T15:46:56.546Z,97477.03
2023-05-23T15:49:26.836Z,97467.75
2023-05-23T15:51:55.414Z,97477.00
2023-05-23T15:54:23.045Z,97478.22
2023-05-23T15:56:50.090Z,97476.34
2023-05-23T15:59:17.121Z,97477.38
2023-05-23T16:01:44.544Z,97473.06
2023-05-23T16:04:11.836Z,97476.22
2023-05-23T16:06:39.605Z,97465.28
2023-05-23T16:09:06.853Z,97469.25
2023-05-23T16:11:33.977Z,97472.25
2023-05-23T16:14:01.091Z,97472.94
2023-05-23T16:16:28.078Z,97477.59
2023-05-23T16:18:55.903Z,97468.81
2023-05-23T16:21:23.362Z,97482.13
2023-05-23T16:23:50.753Z,97476.03
2023-05-23T16:26:19.056Z,97487.00
2023-05-23T16:28:46.069Z,97494.53
2023-05-23T16:31:15.575Z,97489.00
2023-05-23T16:33:46.117Z,97486.94
2023-05-23T16:36:13.138Z,97490.69
2023-05-23T16:38:40.253Z,97492.53
2023-05-23T16:41:07.380Z,97495.00
2023-05-23T16:43:34.995Z,97496.69
2023-05-23T16:46:02.649Z,97496.59
2023-05-23T16:48:29.677Z,97496.50
2023-05-23T16:50:57.749Z,97503.91
2023-05-23T16:53:25.028Z,97507.41
2023-05-23T16:55:52.111Z,97513.28
2023-05-23T16:58:21.195Z,97519.66
2023-05-23T17:00:48.936Z,97514.91
2023-05-23T17:03:16.354Z,97511.63
2023-05-23T17:05:43.914Z,97521.09
2023-05-23T17:08:11.455Z,97518.81
2023-05-23T17:10:38.569Z,97525.75
2023-05-23T17:13:05.901Z,97517.56
2023-05-23T17:15:33.003Z,97519.06
2023-05-23T17:18:00.184Z,97524.66
2023-05-23T17:20:27.357Z,97535.09
2023-05-23T17:22:55.119Z,97534.94
2023-05-23T17:25:22.395Z,97533.50
2023-05-23T17:27:49.409Z,97531.13
2023-05-23T17:30:18.758Z,97536.06
2023-05-23T17:32:47.117Z,97547.94
2023-05-23T17:35:14.671Z,97547.97
2023-05-23T17:37:43.749Z,97543.81
2023-05-23T17:40:11.950Z,97551.75
2023-05-23T17:42:42.717Z,97553.66
2023-05-23T17:45:10.150Z,97554.28
2023-05-23T17:47:37.238Z,97547.97
2023-05-23T17:50:08.527Z,97550.38
2023-05-23T17:52:35.912Z,97556.63
2023-05-23T17:55:03.209Z,97558.31
2023-05-23T17:57:31.255Z,97568.06
2023-05-23T17:59:59.587Z,97571.00
2023-05-23T18:02:29.382Z,97577.44
2023-05-23T18:04:56.664Z,97572.44
2023-05-23T18:07:23.772Z,97574.81
2023-05-23T18:09:50.920Z,97575.44
2023-05-23T18:12:18.104Z,97576.16
2023-05-23T18:14:45.747Z,97572.81
2023-05-23T18:17:13.177Z,97575.81
2023-05-23T18:19:40.477Z,97577.41
2023-05-23T18:22:07.667Z,97591.00
2023-05-23T18:24:34.736Z,97586.66
2023-05-23T18:27:03.133Z,97594.06
2023-05-23T18:29:30.388Z,97589.25
2023-05-23T18:31:57.675Z,97593.66
2023-05-23T18:34:26.491Z,97591.88
2023-05-23T18:36:54.914Z,97594.59
2023-05-23T18:39:22.334Z,97605.19
2023-05-23T18:41:49.462Z,97598.34
2023-05-23T18:44:20.148Z,97598.25
2023-05-23T18:46:48.041Z,97599.59
2023-05-23T18:49:15.215Z,97592.84
2023-05-23T18:51:42.876Z,97596.44
2023-05-23T18:54:09.973Z,97599.06
2023-05-23T18:56:37.051Z,97602.13
2023-05-23T18:59:04.205Z,97600.53
2023-05-23T19:01:31.249Z,97589.78
2023-05-23T19:03:58.334Z,97586.19
2023-05-23T19:06:25.524Z,97596.84
2023-05-23T19:08:52.633Z,97597.16
2023-05-23T19:11:19.741Z,97598.75
2023-05-23T19:13:46.781Z,97599.06
2023-05-23T19:16:13.868Z,97600.28
2023-05-23T19:18:40.996Z,97598.09
2023-05-23T19:21:07.985Z,97606.84
2023-05-23T19:23:35.011Z,97603.25
2023-05-23T19:26:02.277Z,97602.13
2023-05-23T19:28:29.481Z,97598.03
2023-05-23T19:30:56.589Z,97588.91
2023-05-23T19:33:23.629Z,97596.66
2023-05-23T19:35:51.669Z,97590.06
2023-05-23T19:38:19.006Z,97591.44
2023-05-23T19:40:47.711Z,97589.00
2023-05-23T19:43:15.038Z,97588.69
2023-05-23T19:45:42.226Z,97596.78
2023-05-23T19:48:09.488Z,97603.13
2023-05-23T19:50:36.571Z,97596.03
2023-05-23T19:53:03.576Z,97591.94
2023-05-23T19:55:30.705Z,97599.09
2023-05-23T19:57:57.918Z,97603.41
2023-05-23T20:00:25.723Z,97605.19
2023-05-23T20:02:52.860Z,97603.84
2023-05-23T20:05:20.558Z,97600.47
2023-05-23T20:07:47.565Z,97599.13
2023-05-23T20:10:15.526Z,97595.66
2023-05-23T20:12:42.565Z,97592.50
2023-05-23T20:15:09.958Z,97597.56
2023-05-23T20:17:37.005Z,97596.38
2023-05-23T20:20:04.914Z,97601.25
2023-05-23T20:22:31.967Z,97604.31
2023-05-23T20:24:59.948Z,97601.78
2023-05-23T20:27:27.186Z,97608.63
2023-05-23T20:29:54.361Z,97606.19
2023-05-23T20:32:21.472Z,97601.75
2023-05-23T20:34:48.511Z,97596.44
2023-05-23T20:37:15.571Z,97600.47
2023-05-23T20:39:42.641Z,97594.53
2023-05-23T20:42:15.112Z,97593.13
2023-05-23T20:44:42.564Z,97594.16
2023-05-23T20:47:12.176Z,97590.03
2023-05-23T20:49:40.124Z,97588.56
2023-05-23T20:52:07.220Z,97591.22
2023-05-23T20:54:35.510Z,97593.50
2023-05-23T20:57:02.739Z,97588.31
2023-05-23T20:59:32.394Z,97590.47
2023-05-23T21:01:59.504Z,97594.56
2023-05-23T21:04:26.951Z,97596.88
2023-05-23T21:06:54.035Z,97601.00
2023-05-23T21:09:21.037Z,97592.59
2023-05-23T21:11:48.137Z,97596.84
2023-05-23T21:14:15.209Z,97596.66
2023-05-23T21:16:42.279Z,97599.00
2023-05-23T21:19:09.454Z,97599.78
2023-05-23T21:21:37.705Z,97588.94
2023-05-23T21:24:06.482Z,97587.59
2023-05-23T21:26:33.499Z,97583.34
2023-05-23T21:29:00.488Z,97583.47
2023-05-23T21:31:40.386Z,97586.84
2023-05-23T21:34:22.101Z,97586.66
2023-05-23T21:36:51.350Z,97587.50
2023-05-23T21:39:18.450Z,97585.22
2023-05-23T21:41:45.477Z,97593.47
2023-05-23T21:44:13.637Z,97582.97
2023-05-23T21:46:40.900Z,97577.88
2023-05-23T21:49:07.963Z,97577.06
2023-05-23T21:51:34.997Z,97576.56
2023-05-23T21:54:02.002Z,97579.56
2023-05-23T21:56:29.029Z,97583.53
2023-05-23T21:58:56.062Z,97575.47
2023-05-23T22:01:23.103Z,97581.25
2023-05-23T22:03:50.307Z,97581.88
2023-05-23T22:06:17.332Z,97582.03
2023-05-23T22:08:46.333Z,97577.91
2023-05-23T22:11:13.435Z,97574.31
2023-05-23T22:13:40.885Z,97579.75
2023-05-23T22:16:08.126Z,97574.28
2023-05-23T22:18:51.125Z,97575.31
2023-05-23T22:21:19.048Z,97573.84
2023-05-23T22:23:46.321Z,97571.84
2023-05-23T22:26:14.129Z,97575.88
2023-05-23T22:28:41.201Z,97580.09
2023-05-23T22:31:09.860Z,97587.66
2023-05-23T22:33:39.181Z,97579.44
2023-05-23T22:36:06.966Z,97573.66
2023-05-23T22:38:34.400Z,97574.00
2023-05-23T22:41:01.481Z,97565.91
2023-05-23T22:43:29.219Z,97571.66
2023-05-23T22:45:56.976Z,97566.72
2023-05-23T22:48:28.125Z,97568.19
2023-05-23T22:50:55.236Z,97561.81
2023-05-23T22:53:24.888Z,97567.38
2023-05-23T22:55:51.907Z,97563.09
2023-05-23T22:58:18.962Z,97564.41
2023-05-23T23:00:46.158Z,97559.97
2023-05-23T23:03:15.442Z,97568.69
2023-05-23T23:05:42.915Z,97565.25
2023-05-23T23:08:10.061Z,97566.41
2023-05-23T23:10:37.086Z,97559.97
2023-05-23T23:13:04.143Z,97564.41
2023-05-23T23:15:34.046Z,97564.38
2023-05-23T23:18:01.388Z,97554.66
2023-05-23T23:20:28.757Z,97562.53
2023-05-23T23:22:56.090Z,97565.97
2023-05-23T23:25:23.831Z,97558.31
2023-05-23T23:27:51.017Z,97559.25
2023-05-23T23:30:18.022Z,97564.28
2023-05-23T23:32:44.974Z,97570.53
2023-05-23T23:35:12.023Z,97564.34
2023-05-23T23:37:39.121Z,97560.59
2023-05-23T23:40:08.493Z,97556.31
2023-05-23T23:42:35.533Z,97554.00
2023-05-23T23:45:02.823Z,97552.31
2023-05-23T23:47:29.883Z,97549.50
2023-05-23T23:49:56.933Z,97548.72
2023-05-23T23:52:24.001Z,97554.47
2023-05-23T23:54:51.055Z,97551.00
2023-05-23T23:57:18.028Z,97551.13
2023-05-23T23:59:45.324Z,97543.72
